sensor_id;sensor_type;location;lat;lon;timestamp;pressure;altitude;pressure_sealevel;temperature;humidity
9740;BME280;4909;42.680;26.324;2023-05-07T00:01:36;98806.88;;;16.77;54.26
9740;BME280;4909;42.680;26.324;2023-05-07T00:04:05;98826.53;;;16.64;51.09
9740;BME280;4909;42.680;26.324;2023-05-07T00:06:33;98810.88;;;16.84;53.61
9740;BME280;4909;42.680;26.324;2023-05-07T00:08:59;98810.81;;;16.72;51.74
9740;BME280;4909;42.680;26.324;2023-05-07T00:11:26;98815.31;;;16.71;49.30
9740;BME280;4909;42.680;26.324;2023-05-07T00:13:54;98805.84;;;16.66;50.48
9740;BME280;4909;42.680;26.324;2023-05-07T00:16:20;98797.94;;;16.64;48.77
9740;BME280;4909;42.680;26.324;2023-05-07T00:18:47;98788.72;;;16.68;50.21
9740;BME280;4909;42.680;26.324;2023-05-07T00:21:16;98806.53;;;16.69;47.46
9740;BME280;4909;42.680;26.324;2023-05-07T00:23:42;98809.94;;;16.71;48.43
9740;BME280;4909;42.680;26.324;2023-05-07T00:26:09;98805.69;;;16.81;48.04
9740;BME280;4909;42.680;26.324;2023-05-07T00:28:36;98809.56;;;16.90;51.44
9740;BME280;4909;42.680;26.324;2023-05-07T00:31:03;98793.69;;;16.87;53.93
9740;BME280;4909;42.680;26.324;2023-05-07T00:33:30;98805.59;;;16.83;49.07
9740;BME280;4909;42.680;26.324;2023-05-07T00:35:56;98809.78;;;16.87;51.89
9740;BME280;4909;42.680;26.324;2023-05-07T00:38:24;98813.47;;;16.99;50.93
9740;BME280;4909;42.680;26.324;2023-05-07T00:40:51;98801.59;;;16.76;52.83
9740;BME280;4909;42.680;26.324;2023-05-07T00:43:18;98800.63;;;16.77;51.98
9740;BME280;4909;42.680;26.324;2023-05-07T00:45:45;98803.38;;;16.63;51.43
9740;BME280;4909;42.680;26.324;2023-05-07T00:48:12;98799.16;;;16.85;53.73
9740;BME280;4909;42.680;26.324;2023-05-07T00:50:39;98789.13;;;17.02;54.27
9740;BME280;4909;42.680;26.324;2023-05-07T00:53:06;98794.16;;;16.93;53.82
9740;BME280;4909;42.680;26.324;2023-05-07T00:55:35;98786.84;;;16.95;54.52
9740;BME280;4909;42.680;26.324;2023-05-07T00:58:02;98795.13;;;17.05;56.05
9740;BME280;4909;42.680;26.324;2023-05-07T01:00:29;98780.72;;;16.81;54.99
9740;BME280;4909;42.680;26.324;2023-05-07T01:02:55;98785.25;;;16.93;54.53
9740;BME280;4909;42.680;26.324;2023-05-07T01:05:23;98794.34;;;16.90;56.84
9740;BME280;4909;42.680;26.324;2023-05-07T01:07:52;98794.34;;;16.90;52.74
9740;BME280;4909;42.680;26.324;2023-05-07T01:10:20;98786.75;;;16.84;57.82
9740;BME280;4909;42.680;26.324;2023-05-07T01:12:49;98787.25;;;16.77;56.24
9740;BME280;4909;42.680;26.324;2023-05-07T01:15:16;98784.53;;;16.64;57.77
9740;BME280;4909;42.680;26.324;2023-05-07T01:17:44;98780.91;;;16.51;54.63
9740;BME280;4909;42.680;26.324;2023-05-07T01:20:11;98779.50;;;16.45;58.39
9740;BME280;4909;42.680;26.324;2023-05-07T01:22:40;98783.25;;;16.56;57.04
9740;BME280;4909;42.680;26.324;2023-05-07T01:25:08;98773.84;;;16.50;58.05
9740;BME280;4909;42.680;26.324;2023-05-07T01:27:35;98778.97;;;16.53;59.72
9740;BME280;4909;42.680;26.324;2023-05-07T01:30:03;98765.59;;;16.53;56.33
9740;BME280;4909;42.680;26.324;2023-05-07T01:32:32;98769.75;;;16.71;56.94
9740;BME280;4909;42.680;26.324;2023-05-07T01:35:01;98758.00;;;16.86;57.59
9740;BME280;4909;42.680;26.324;2023-05-07T01:37:30;98770.72;;;16.56;58.71
9740;BME280;4909;42.680;26.324;2023-05-07T01:39:58;98764.91;;;16.64;61.42
9740;BME280;4909;42.680;26.324;2023-05-07T01:42:25;98763.53;;;16.03;60.26
9740;BME280;4909;42.680;26.324;2023-05-07T01:44:52;98770.13;;;16.12;62.76
9740;BME280;4909;42.680;26.324;2023-05-07T01:47:19;98751.63;;;16.48;60.98
9740;BME280;4909;42.680;26.324;2023-05-07T01:49:47;98776.28;;;16.40;59.34
9740;BME280;4909;42.680;26.324;2023-05-07T01:52:14;98761.94;;;16.00;59.41
9740;BME280;4909;42.680;26.324;2023-05-07T01:54:40;98764.03;;;15.95;61.34
9740;BME280;4909;42.680;26.324;2023-05-07T01:57:09;98772.59;;;16.15;63.12
9740;BME280;4909;42.680;26.324;2023-05-07T01:59:36;98775.41;;;15.99;61.67
9740;BME280;4909;42.680;26.324;2023-05-07T02:02:02;98765.53;;;15.73;61.61
9740;BME280;4909;42.680;26.324;2023-05-07T02:04:29;98760.22;;;15.99;64.59
9740;BME280;4909;42.680;26.324;2023-05-07T02:06:56;98770.94;;;16.53;60.86
9740;BME280;4909;42.680;26.324;2023-05-07T02:09:23;98778.00;;;16.68;60.15
9740;BME280;4909;42.680;26.324;2023-05-07T02:11:49;98770.09;;;16.52;57.80
9740;BME280;4909;42.680;26.324;2023-05-07T02:14:17;98770.44;;;16.61;61.54
9740;BME280;4909;42.680;26.324;2023-05-07T02:16:45;98769.50;;;16.62;61.53
9740;BME280;4909;42.680;26.324;2023-05-07T02:19:12;98773.41;;;16.56;60.21
9740;BME280;4909;42.680;26.324;2023-05-07T02:21:38;98770.53;;;16.32;60.48
9740;BME280;4909;42.680;26.324;2023-05-07T02:24:05;98780.44;;;16.18;62.26
9740;BME280;4909;42.680;26.324;2023-05-07T02:26:32;98780.47;;;16.03;63.77
9740;BME280;4909;42.680;26.324;2023-05-07T02:28:59;98773.69;;;15.98;63.26
9740;BME280;4909;42.680;26.324;2023-05-07T02:31:27;98781.25;;;15.91;63.28
9740;BME280;4909;42.680;26.324;2023-05-07T02:33:54;98771.97;;;15.97;63.37
9740;BME280;4909;42.680;26.324;2023-05-07T02:36:21;98760.50;;;15.95;61.78
9740;BME280;4909;42.680;26.324;2023-05-07T02:38:47;98769.88;;;15.74;62.22
9740;BME280;4909;42.680;26.324;2023-05-07T02:41:14;98772.81;;;14.83;63.85
9740;BME280;4909;42.680;26.324;2023-05-07T02:43:41;98767.94;;;14.45;66.91
9740;BME280;4909;42.680;26.324;2023-05-07T02:46:09;98757.50;;;14.86;66.71
9740;BME280;4909;42.680;26.324;2023-05-07T02:48:37;98743.50;;;15.25;67.28
9740;BME280;4909;42.680;26.324;2023-05-07T02:51:04;98764.06;;;15.81;63.49
9740;BME280;4909;42.680;26.324;2023-05-07T02:53:32;98766.03;;;16.06;62.36
9740;BME280;4909;42.680;26.324;2023-05-07T02:56:00;98780.97;;;15.96;60.79
9740;BME280;4909;42.680;26.324;2023-05-07T02:58:27;98746.09;;;15.41;64.64
9740;BME280;4909;42.680;26.324;2023-05-07T03:00:54;98771.00;;;15.13;61.64
9740;BME280;4909;42.680;26.324;2023-05-07T03:03:21;98785.91;;;15.31;65.64
9740;BME280;4909;42.680;26.324;2023-05-07T03:05:49;98778.22;;;15.11;62.37
9740;BME280;4909;42.680;26.324;2023-05-07T03:08:16;98774.06;;;15.49;65.07
9740;BME280;4909;42.680;26.324;2023-05-07T03:10:42;98790.72;;;14.96;61.06
9740;BME280;4909;42.680;26.324;2023-05-07T03:13:09;98787.84;;;14.85;66.52
9740;BME280;4909;42.680;26.324;2023-05-07T03:15:36;98784.09;;;15.17;65.69
9740;BME280;4909;42.680;26.324;2023-05-07T03:18:03;98780.75;;;15.28;66.54
9740;BME280;4909;42.680;26.324;2023-05-07T03:20:31;98794.81;;;15.46;63.70
9740;BME280;4909;42.680;26.324;2023-05-07T03:22:59;98789.66;;;15.29;66.02
9740;BME280;4909;42.680;26.324;2023-05-07T03:25:26;98796.78;;;15.72;65.39
9740;BME280;4909;42.680;26.324;2023-05-07T03:27:52;98792.06;;;15.61;62.27
9740;BME280;4909;42.680;26.324;2023-05-07T03:30:19;98797.69;;;15.85;65.27
9740;BME280;4909;42.680;26.324;2023-05-07T03:32:46;98799.59;;;16.12;61.97
9740;BME280;4909;42.680;26.324;2023-05-07T03:35:13;98797.00;;;16.10;58.09
9740;BME280;4909;42.680;26.324;2023-05-07T03:37:40;98807.09;;;15.92;63.80
9740;BME280;4909;42.680;26.324;2023-05-07T03:40:09;98801.00;;;16.03;62.90
9740;BME280;4909;42.680;26.324;2023-05-07T03:42:37;98796.94;;;15.97;61.14
9740;BME280;4909;42.680;26.324;2023-05-07T03:45:05;98815.28;;;16.03;62.73
9740;BME280;4909;42.680;26.324;2023-05-07T03:47:32;98799.06;;;15.92;61.69
9740;BME280;4909;42.680;26.324;2023-05-07T03:49:58;98806.16;;;15.49;62.62
9740;BME280;4909;42.680;26.324;2023-05-07T03:52:25;98792.75;;;15.51;61.73
9740;BME280;4909;42.680;26.324;2023-05-07T03:54:52;98815.50;;;15.72;62.14
9740;BME280;4909;42.680;26.324;2023-05-07T03:57:20;98802.41;;;15.53;60.54
9740;BME280;4909;42.680;26.324;2023-05-07T03:59:47;98815.66;;;15.69;62.10
9740;BME280;4909;42.680;26.324;2023-05-07T04:02:14;98819.22;;;15.55;63.25
9740;BME280;4909;42.680;26.324;2023-05-07T04:04:41;98808.03;;;15.63;63.25
9740;BME280;4909;42.680;26.324;2023-05-07T04:07:08;98814.41;;;15.89;61.58
9740;BME280;4909;42.680;26.324;2023-05-07T04:09:35;98820.31;;;16.08;59.55
9740;BME280;4909;42.680;26.324;2023-05-07T04:12:02;98825.69;;;15.94;59.19
9740;BME280;4909;42.680;26.324;2023-05-07T04:14:30;98830.72;;;15.42;61.01
9740;BME280;4909;42.680;26.324;2023-05-07T04:16:57;98811.91;;;15.43;61.69
9740;BME280;4909;42.680;26.324;2023-05-07T04:19:24;98837.81;;;15.43;60.59
9740;BME280;4909;42.680;26.324;2023-05-07T04:21:51;98842.25;;;15.28;62.62
9740;BME280;4909;42.680;26.324;2023-05-07T04:24:18;98837.00;;;15.71;63.70
9740;BME280;4909;42.680;26.324;2023-05-07T04:26:45;98844.72;;;15.89;59.36
9740;BME280;4909;42.680;26.324;2023-05-07T04:29:12;98843.97;;;15.87;61.02
9740;BME280;4909;42.680;26.324;2023-05-07T04:31:40;98852.06;;;16.14;61.68
9740;BME280;4909;42.680;26.324;2023-05-07T04:34:09;98846.75;;;16.55;60.22
9740;BME280;4909;42.680;26.324;2023-05-07T04:36:36;98858.25;;;16.84;58.73
9740;BME280;4909;42.680;26.324;2023-05-07T04:39:03;98863.13;;;17.04;58.20
9740;BME280;4909;42.680;26.324;2023-05-07T04:41:30;98866.06;;;17.14;59.30
9740;BME280;4909;42.680;26.324;2023-05-07T04:43:57;98862.34;;;17.29;57.67
9740;BME280;4909;42.680;26.324;2023-05-07T04:46:24;98853.13;;;17.33;56.67
9740;BME280;4909;42.680;26.324;2023-05-07T04:48:52;98867.19;;;17.49;56.96
9740;BME280;4909;42.680;26.324;2023-05-07T04:51:19;98876.56;;;17.56;56.34
9740;BME280;4909;42.680;26.324;2023-05-07T04:53:46;98874.88;;;17.28;53.84
9740;BME280;4909;42.680;26.324;2023-05-07T04:56:12;98882.53;;;17.34;57.90
9740;BME280;4909;42.680;26.324;2023-05-07T04:58:39;98879.59;;;17.64;57.34
9740;BME280;4909;42.680;26.324;2023-05-07T05:01:06;98875.41;;;17.98;55.71
9740;BME280;4909;42.680;26.324;2023-05-07T05:03:33;98879.78;;;18.24;55.73
9740;BME280;4909;42.680;26.324;2023-05-07T05:06:01;98881.47;;;18.38;54.55
9740;BME280;4909;42.680;26.324;2023-05-07T05:08:29;98880.94;;;18.58;54.21
9740;BME280;4909;42.680;26.324;2023-05-07T05:10:56;98890.22;;;18.78;52.59
9740;BME280;4909;42.680;26.324;2023-05-07T05:13:23;98891.81;;;18.81;52.39
9740;BME280;4909;42.680;26.324;2023-05-07T05:15:50;98877.91;;;18.63;52.76
9740;BME280;4909;42.680;26.324;2023-05-07T05:18:16;98877.59;;;18.79;52.79
9740;BME280;4909;42.680;26.324;2023-05-07T05:20:43;98890.78;;;18.94;53.55
9740;BME280;4909;42.680;26.324;2023-05-07T05:23:11;98887.91;;;19.08;52.39
9740;BME280;4909;42.680;26.324;2023-05-07T05:25:38;98887.56;;;19.13;51.87
9740;BME280;4909;42.680;26.324;2023-05-07T05:28:05;98897.13;;;19.17;52.18
9740;BME280;4909;42.680;26.324;2023-05-07T05:30:32;98898.13;;;19.16;52.21
9740;BME280;4909;42.680;26.324;2023-05-07T05:32:59;98890.84;;;19.29;51.78
9740;BME280;4909;42.680;26.324;2023-05-07T05:35:26;98891.59;;;19.31;49.19
9740;BME280;4909;42.680;26.324;2023-05-07T05:37:53;98888.00;;;18.96;47.46
9740;BME280;4909;42.680;26.324;2023-05-07T05:40:21;98894.16;;;18.85;50.36
9740;BME280;4909;42.680;26.324;2023-05-07T05:42:48;98893.72;;;18.42;48.05
9740;BME280;4909;42.680;26.324;2023-05-07T05:45:15;98887.59;;;18.40;47.48
9740;BME280;4909;42.680;26.324;2023-05-07T05:47:41;98896.56;;;18.03;48.98
9740;BME280;4909;42.680;26.324;2023-05-07T05:50:09;98902.91;;;18.14;48.91
9740;BME280;4909;42.680;26.324;2023-05-07T05:52:35;98909.69;;;17.95;52.09
9740;BME280;4909;42.680;26.324;2023-05-07T05:55:02;98891.84;;;18.06;51.35
9740;BME280;4909;42.680;26.324;2023-05-07T05:57:31;98895.44;;;18.31;50.00
9740;BME280;4909;42.680;26.324;2023-05-07T05:59:57;98897.56;;;18.51;48.83
9740;BME280;4909;42.680;26.324;2023-05-07T06:02:24;98886.50;;;18.55;49.68
9740;BME280;4909;42.680;26.324;2023-05-07T06:04:51;98895.63;;;18.65;47.39
9740;BME280;4909;42.680;26.324;2023-05-07T06:07:18;98902.97;;;18.63;46.26
9740;BME280;4909;42.680;26.324;2023-05-07T06:09:44;98866.97;;;18.53;49.40
9740;BME280;4909;42.680;26.324;2023-05-07T06:12:11;98888.53;;;18.88;47.04
9740;BME280;4909;42.680;26.324;2023-05-07T06:14:39;98890.31;;;18.77;46.42
9740;BME280;4909;42.680;26.324;2023-05-07T06:17:07;98892.97;;;18.89;46.97
9740;BME280;4909;42.680;26.324;2023-05-07T06:19:33;98890.88;;;18.93;45.94
9740;BME280;4909;42.680;26.324;2023-05-07T06:22:00;98884.53;;;18.94;46.62
9740;BME280;4909;42.680;26.324;2023-05-07T06:24:28;98885.47;;;18.82;46.04
9740;BME280;4909;42.680;26.324;2023-05-07T06:26:55;98896.50;;;18.90;45.46
9740;BME280;4909;42.680;26.324;2023-05-07T06:29:23;98899.38;;;18.99;45.45
9740;BME280;4909;42.680;26.324;2023-05-07T06:31:52;98894.41;;;19.06;46.59
9740;BME280;4909;42.680;26.324;2023-05-07T06:34:19;98896.41;;;19.15;46.18
9740;BME280;4909;42.680;26.324;2023-05-07T06:36:46;98891.75;;;18.93;46.99
9740;BME280;4909;42.680;26.324;2023-05-07T06:39:12;98878.97;;;19.08;45.74
9740;BME280;4909;42.680;26.324;2023-05-07T06:41:39;98892.75;;;19.16;47.23
9740;BME280;4909;42.680;26.324;2023-05-07T06:44:06;98889.09;;;19.28;46.31
9740;BME280;4909;42.680;26.324;2023-05-07T06:46:33;98885.47;;;19.64;47.09
9740;BME280;4909;42.680;26.324;2023-05-07T06:49:01;98892.59;;;19.76;45.58
9740;BME280;4909;42.680;26.324;2023-05-07T06:51:28;98890.88;;;19.75;45.88
9740;BME280;4909;42.680;26.324;2023-05-07T06:53:55;98890.19;;;20.07;45.99
9740;BME280;4909;42.680;26.324;2023-05-07T06:56:22;98896.31;;;20.09;43.49
9740;BME280;4909;42.680;26.324;2023-05-07T06:58:49;98890.09;;;20.42;45.22
9740;BME280;4909;42.680;26.324;2023-05-07T07:01:16;98887.63;;;20.38;42.78
9740;BME280;4909;42.680;26.324;2023-05-07T07:03:43;98903.53;;;20.19;41.71
9740;BME280;4909;42.680;26.324;2023-05-07T07:06:11;98893.50;;;20.21;42.77
9740;BME280;4909;42.680;26.324;2023-05-07T07:08:37;98888.50;;;20.28;42.16
9740;BME280;4909;42.680;26.324;2023-05-07T07:11:04;98890.81;;;20.44;43.72
9740;BME280;4909;42.680;26.324;2023-05-07T07:13:31;98880.91;;;20.55;41.58
9740;BME280;4909;42.680;26.324;2023-05-07T07:15:58;98899.03;;;20.64;43.87
9740;BME280;4909;42.680;26.324;2023-05-07T07:18:25;98896.59;;;20.61;42.27
9740;BME280;4909;42.680;26.324;2023-05-07T07:20:52;98892.66;;;20.54;41.88
9740;BME280;4909;42.680;26.324;2023-05-07T07:23:20;98897.94;;;20.67;41.28
9740;BME280;4909;42.680;26.324;2023-05-07T07:25:47;98885.47;;;20.87;43.89
9740;BME280;4909;42.680;26.324;2023-05-07T07:28:13;98898.16;;;21.29;42.44
9740;BME280;4909;42.680;26.324;2023-05-07T07:30:40;98896.00;;;21.44;40.13
9740;BME280;4909;42.680;26.324;2023-05-07T07:33:07;98894.16;;;21.44;39.69
9740;BME280;4909;42.680;26.324;2023-05-07T07:35:34;98889.97;;;21.19;38.90
9740;BME280;4909;42.680;26.324;2023-05-07T07:38:00;98901.00;;;21.16;38.98
9740;BME280;4909;42.680;26.324;2023-05-07T07:40:29;98893.16;;;21.45;41.81
9740;BME280;4909;42.680;26.324;2023-05-07T07:42:56;98898.44;;;21.88;42.17
9740;BME280;4909;42.680;26.324;2023-05-07T07:45:23;98887.88;;;21.96;41.02
9740;BME280;4909;42.680;26.324;2023-05-07T07:47:50;98889.03;;;22.03;38.87
9740;BME280;4909;42.680;26.324;2023-05-07T07:50:16;98888.59;;;22.29;38.70
9740;BME280;4909;42.680;26.324;2023-05-07T07:52:43;98890.91;;;22.13;36.84
9740;BME280;4909;42.680;26.324;2023-05-07T07:55:10;98889.69;;;21.75;37.37
9740;BME280;4909;42.680;26.324;2023-05-07T07:57:38;98889.50;;;21.88;35.89
9740;BME280;4909;42.680;26.324;2023-05-07T08:00:06;98894.63;;;21.91;35.19
9740;BME280;4909;42.680;26.324;2023-05-07T08:02:33;98896.81;;;21.76;35.86
9740;BME280;4909;42.680;26.324;2023-05-07T08:05:00;98898.91;;;21.93;35.51
9740;BME280;4909;42.680;26.324;2023-05-07T08:07:26;98892.38;;;22.17;35.53
9740;BME280;4909;42.680;26.324;2023-05-07T08:09:53;98887.19;;;21.83;35.11
9740;BME280;4909;42.680;26.324;2023-05-07T08:12:20;98878.69;;;21.67;34.69
9740;BME280;4909;42.680;26.324;2023-05-07T08:14:48;98891.91;;;21.70;34.88
9740;BME280;4909;42.680;26.324;2023-05-07T08:17:15;98895.94;;;21.76;36.21
9740;BME280;4909;42.680;26.324;2023-05-07T08:19:42;98892.06;;;22.10;35.69
9740;BME280;4909;42.680;26.324;2023-05-07T08:22:09;98887.31;;;22.33;34.75
9740;BME280;4909;42.680;26.324;2023-05-07T08:24:36;98891.03;;;22.01;35.33
9740;BME280;4909;42.680;26.324;2023-05-07T08:27:03;98891.28;;;21.98;34.38
9740;BME280;4909;42.680;26.324;2023-05-07T08:29:29;98883.59;;;22.24;34.57
9740;BME280;4909;42.680;26.324;2023-05-07T08:31:58;98883.00;;;22.51;34.66
9740;BME280;4909;42.680;26.324;2023-05-07T08:34:24;98883.91;;;22.71;32.73
9740;BME280;4909;42.680;26.324;2023-05-07T08:36:51;98872.69;;;22.75;32.06
9740;BME280;4909;42.680;26.324;2023-05-07T08:39:18;98888.25;;;22.83;32.33
9740;BME280;4909;42.680;26.324;2023-05-07T08:41:45;98854.75;;;22.34;33.15
9740;BME280;4909;42.680;26.324;2023-05-07T08:44:13;98875.75;;;22.21;32.75
9740;BME280;4909;42.680;26.324;2023-05-07T08:46:41;98871.00;;;22.14;34.77
9740;BME280;4909;42.680;26.324;2023-05-07T08:49:10;98864.81;;;22.32;34.44
9740;BME280;4909;42.680;26.324;2023-05-07T08:51:37;98864.84;;;22.72;33.28
9740;BME280;4909;42.680;26.324;2023-05-07T08:54:04;98864.34;;;22.98;33.17
9740;BME280;4909;42.680;26.324;2023-05-07T08:56:32;98869.34;;;23.31;32.27
9740;BME280;4909;42.680;26.324;2023-05-07T08:58:59;98871.06;;;23.32;31.44
9740;BME280;4909;42.680;26.324;2023-05-07T09:01:26;98866.22;;;23.26;31.78
9740;BME280;4909;42.680;26.324;2023-05-07T09:03:53;98865.91;;;23.19;31.85
9740;BME280;4909;42.680;26.324;2023-05-07T09:06:21;98862.63;;;22.96;31.12
9740;BME280;4909;42.680;26.324;2023-05-07T09:08:52;98861.75;;;22.86;31.21
9740;BME280;4909;42.680;26.324;2023-05-07T09:11:21;98858.34;;;22.94;30.88
9740;BME280;4909;42.680;26.324;2023-05-07T09:13:49;98850.50;;;23.10;31.47
9740;BME280;4909;42.680;26.324;2023-05-07T09:16:20;98849.22;;;23.05;30.95
9740;BME280;4909;42.680;26.324;2023-05-07T09:18:51;98855.78;;;23.02;29.55
9740;BME280;4909;42.680;26.324;2023-05-07T09:21:19;98848.78;;;23.00;30.17
9740;BME280;4909;42.680;26.324;2023-05-07T09:23:50;98853.09;;;23.02;30.55
9740;BME280;4909;42.680;26.324;2023-05-07T09:26:17;98830.97;;;22.87;30.83
9740;BME280;4909;42.680;26.324;2023-05-07T09:28:45;98843.13;;;23.03;30.58
9740;BME280;4909;42.680;26.324;2023-05-07T09:31:12;98835.41;;;23.08;30.70
9740;BME280;4909;42.680;26.324;2023-05-07T09:33:39;98832.84;;;23.16;29.87
9740;BME280;4909;42.680;26.324;2023-05-07T09:36:08;98828.72;;;23.12;30.17
9740;BME280;4909;42.680;26.324;2023-05-07T09:38:36;98824.72;;;23.35;29.69
9740;BME280;4909;42.680;26.324;2023-05-07T09:41:06;98818.88;;;23.20;28.51
9740;BME280;4909;42.680;26.324;2023-05-07T09:43:34;98824.72;;;23.16;29.53
9740;BME280;4909;42.680;26.324;2023-05-07T09:46:03;98823.28;;;22.83;29.54
9740;BME280;4909;42.680;26.324;2023-05-07T09:48:32;98824.28;;;22.91;29.84
9740;BME280;4909;42.680;26.324;2023-05-07T09:51:02;98816.88;;;22.74;30.08
9740;BME280;4909;42.680;26.324;2023-05-07T09:53:33;98797.53;;;22.98;29.00
9740;BME280;4909;42.680;26.324;2023-05-07T09:56:00;98800.22;;;23.17;29.18
9740;BME280;4909;42.680;26.324;2023-05-07T09:58:31;98794.50;;;23.30;29.05
9740;BME280;4909;42.680;26.324;2023-05-07T10:00:58;98796.22;;;23.50;29.16
9740;BME280;4909;42.680;26.324;2023-05-07T10:03:27;98803.47;;;23.40;28.72
9740;BME280;4909;42.680;26.324;2023-05-07T10:05:56;98790.66;;;23.42;28.76
9740;BME280;4909;42.680;26.324;2023-05-07T10:08:24;98790.06;;;23.58;29.13
9740;BME280;4909;42.680;26.324;2023-05-07T10:10:51;98792.66;;;23.50;28.31
9740;BME280;4909;42.680;26.324;2023-05-07T10:13:19;98788.53;;;23.46;28.17
9740;BME280;4909;42.680;26.324;2023-05-07T10:15:47;98788.41;;;23.47;28.97
9740;BME280;4909;42.680;26.324;2023-05-07T10:18:15;98783.50;;;23.41;29.72
9740;BME280;4909;42.680;26.324;2023-05-07T10:20:42;98795.47;;;23.58;30.07
9740;BME280;4909;42.680;26.324;2023-05-07T10:23:13;98787.06;;;23.61;28.19
9740;BME280;4909;42.680;26.324;2023-05-07T10:25:41;98778.97;;;23.51;29.05
9740;BME280;4909;42.680;26.324;2023-05-07T10:28:10;98781.75;;;23.69;28.77
9740;BME280;4909;42.680;26.324;2023-05-07T10:30:52;98770.53;;;23.54;29.06
9740;BME280;4909;42.680;26.324;2023-05-07T10:33:25;98782.38;;;23.34;29.58
9740;BME280;4909;42.680;26.324;2023-05-07T10:35:57;98786.53;;;23.48;30.47
9740;BME280;4909;42.680;26.324;2023-05-07T10:38:24;98782.81;;;23.49;30.24
9740;BME280;4909;42.680;26.324;2023-05-07T10:40:52;98781.59;;;23.80;30.05
9740;BME280;4909;42.680;26.324;2023-05-07T10:43:19;98772.59;;;23.79;28.66
9740;BME280;4909;42.680;26.324;2023-05-07T10:46:09;98777.78;;;23.63;28.17
9740;BME280;4909;42.680;26.324;2023-05-07T10:49:11;98774.69;;;23.49;29.41
9740;BME280;4909;42.680;26.324;2023-05-07T10:51:38;98783.41;;;23.52;30.93
9740;BME280;4909;42.680;26.324;2023-05-07T10:54:23;98776.50;;;23.58;28.03
9740;BME280;4909;42.680;26.324;2023-05-07T10:56:50;98747.03;;;23.45;28.70
9740;BME280;4909;42.680;26.324;2023-05-07T10:59:31;98763.38;;;23.44;29.50
9740;BME280;4909;42.680;26.324;2023-05-07T11:02:01;98727.13;;;23.17;29.69
9740;BME280;4909;42.680;26.324;2023-05-07T11:04:30;98753.63;;;23.23;30.10
9740;BME280;4909;42.680;26.324;2023-05-07T11:07:24;98759.44;;;23.09;29.74
9740;BME280;4909;42.680;26.324;2023-05-07T11:10:05;98744.50;;;22.86;29.62
9740;BME280;4909;42.680;26.324;2023-05-07T11:12:52;98750.34;;;22.81;29.64
9740;BME280;4909;42.680;26.324;2023-05-07T11:15:52;98745.66;;;22.83;30.83
9740;BME280;4909;42.680;26.324;2023-05-07T11:18:21;98741.53;;;23.08;32.19
9740;BME280;4909;42.680;26.324;2023-05-07T11:20:52;98749.91;;;23.05;30.92
9740;BME280;4909;42.680;26.324;2023-05-07T11:23:57;98750.66;;;22.88;32.07
9740;BME280;4909;42.680;26.324;2023-05-07T11:26:24;98740.25;;;22.93;31.46
9740;BME280;4909;42.680;26.324;2023-05-07T11:28:52;98741.22;;;23.11;32.96
9740;BME280;4909;42.680;26.324;2023-05-07T11:31:24;98754.75;;;23.21;32.51
9740;BME280;4909;42.680;26.324;2023-05-07T11:33:54;98741.09;;;22.84;32.70
9740;BME280;4909;42.680;26.324;2023-05-07T11:36:22;98739.25;;;23.04;33.63
9740;BME280;4909;42.680;26.324;2023-05-07T11:38:49;98746.09;;;22.88;32.75
9740;BME280;4909;42.680;26.324;2023-05-07T11:41:16;98747.91;;;22.59;33.25
9740;BME280;4909;42.680;26.324;2023-05-07T11:43:58;98751.72;;;22.66;32.80
9740;BME280;4909;42.680;26.324;2023-05-07T11:46:26;98748.38;;;22.74;33.21
9740;BME280;4909;42.680;26.324;2023-05-07T11:48:55;98739.81;;;22.78;33.44
9740;BME280;4909;42.680;26.324;2023-05-07T11:51:23;98729.41;;;22.93;33.38
9740;BME280;4909;42.680;26.324;2023-05-07T11:53:51;98723.69;;;22.96;32.37
9740;BME280;4909;42.680;26.324;2023-05-07T11:56:18;98745.78;;;23.01;33.06
9740;BME280;4909;42.680;26.324;2023-05-07T11:58:46;98739.69;;;22.99;33.60
9740;BME280;4909;42.680;26.324;2023-05-07T12:01:14;98729.69;;;23.00;31.67
9740;BME280;4909;42.680;26.324;2023-05-07T12:03:43;98733.00;;;22.74;32.73
9740;BME280;4909;42.680;26.324;2023-05-07T12:06:13;98718.69;;;22.43;33.33
9740;BME280;4909;42.680;26.324;2023-05-07T12:08:41;98728.41;;;22.56;33.64
9740;BME280;4909;42.680;26.324;2023-05-07T12:11:09;98737.34;;;22.66;34.14
9740;BME280;4909;42.680;26.324;2023-05-07T12:13:37;98739.47;;;22.62;33.53
9740;BME280;4909;42.680;26.324;2023-05-07T12:16:05;98736.63;;;22.54;34.35
9740;BME280;4909;42.680;26.324;2023-05-07T12:18:33;98728.09;;;22.49;34.14
9740;BME280;4909;42.680;26.324;2023-05-07T12:21:00;98717.94;;;22.32;33.35
9740;BME280;4909;42.680;26.324;2023-05-07T12:23:29;98709.13;;;22.30;32.99
9740;BME280;4909;42.680;26.324;2023-05-07T12:25:56;98722.69;;;22.49;33.74
9740;BME280;4909;42.680;26.324;2023-05-07T12:28:23;98724.94;;;22.44;33.62
9740;BME280;4909;42.680;26.324;2023-05-07T12:30:51;98709.84;;;22.41;33.74
9740;BME280;4909;42.680;26.324;2023-05-07T12:33:23;98706.88;;;22.44;33.75
9740;BME280;4909;42.680;26.324;2023-05-07T12:35:50;98709.59;;;22.54;33.46
9740;BME280;4909;42.680;26.324;2023-05-07T12:38:17;98706.03;;;22.63;33.15
9740;BME280;4909;42.680;26.324;2023-05-07T12:40:47;98704.06;;;22.65;32.92
9740;BME280;4909;42.680;26.324;2023-05-07T12:43:16;98694.47;;;22.51;34.06
9740;BME280;4909;42.680;26.324;2023-05-07T12:45:44;98707.31;;;22.49;34.01
9740;BME280;4909;42.680;26.324;2023-05-07T12:48:11;98701.03;;;22.59;33.44
9740;BME280;4909;42.680;26.324;2023-05-07T12:50:38;98696.19;;;22.62;32.75
9740;BME280;4909;42.680;26.324;2023-05-07T12:53:06;98695.50;;;22.60;33.74
9740;BME280;4909;42.680;26.324;2023-05-07T12:55:41;98696.63;;;22.38;33.21
9740;BME280;4909;42.680;26.324;2023-05-07T12:58:14;98663.16;;;22.20;34.64
9740;BME280;4909;42.680;26.324;2023-05-07T13:00:42;98697.47;;;22.39;34.02
9740;BME280;4909;42.680;26.324;2023-05-07T13:03:10;98651.75;;;22.07;34.52
9740;BME280;4909;42.680;26.324;2023-05-07T13:05:36;98699.06;;;22.51;33.54
9740;BME280;4909;42.680;26.324;2023-05-07T13:08:04;98672.56;;;22.26;33.20
9740;BME280;4909;42.680;26.324;2023-05-07T13:10:31;98701.88;;;22.30;33.30
9740;BME280;4909;42.680;26.324;2023-05-07T13:12:59;98695.06;;;22.36;34.88
9740;BME280;4909;42.680;26.324;2023-05-07T13:15:27;98695.63;;;22.39;34.19